CROW101 ETHL-ETHL

Flight info

Callsign CROW101
Flight time 0h 2m
Altitude 1111
Route VFR
Aircraft EC45/L-SDE3FGHIRWY/S

Departure

Time 2026-04-26 20:22
Airport Laupheim Air Base (ETHL)

Arrival

Time 2026-04-26 20:24
Airport Laupheim Air Base (ETHL)
Time Latitude Longitude Altitude Speed Heading
2026-04-26 20:13 48.21746 9.91212 1772 ft 0 kts 292°
2026-04-26 20:19 48.21746 9.91207 1785 ft 3 kts 291°
2026-04-26 20:19 48.21781 9.91210 1784 ft 7 kts 12°
2026-04-26 20:20 48.21850 9.91220 1783 ft 13 kts
2026-04-26 20:20 48.21954 9.91225 1784 ft 16 kts
2026-04-26 20:20 48.21999 9.91529 1833 ft 68 kts 91°
2026-04-26 20:20 48.21959 9.92389 1957 ft 90 kts 91°
2026-04-26 20:21 48.21901 9.93324 2117 ft 89 kts 93°
2026-04-26 20:21 48.21496 9.93930 2186 ft 99 kts 170°
2026-04-26 20:21 48.20805 9.93999 2297 ft 98 kts 172°
2026-04-26 20:21 48.20134 9.93964 2365 ft 101 kts 209°
2026-04-26 20:22 48.19911 9.92999 2389 ft 103 kts 272°
2026-04-26 20:22 48.19909 9.91924 2433 ft 105 kts 271°
2026-04-26 20:22 48.19866 9.90790 2422 ft 113 kts 266°
2026-04-26 20:22 48.19823 9.89578 2390 ft 118 kts 269°
2026-04-26 20:23 48.19816 9.88330 2336 ft 120 kts 278°
2026-04-26 20:23 48.20330 9.87616 2347 ft 98 kts 355°
2026-04-26 20:23 48.20957 9.87584 2299 ft 84 kts
2026-04-26 20:23 48.21467 9.87878 2225 ft 82 kts 53°
2026-04-26 20:24 48.21725 9.88598 2185 ft 70 kts 66°
2026-04-26 20:24 48.21901 9.89180 2046 ft 55 kts 68°
2026-04-26 20:24 48.22029 9.89655 1936 ft 42 kts 74°
2026-04-26 20:24 48.22044 9.90014 1859 ft 28 kts 88°
2026-04-26 20:25 48.22037 9.90236 1800 ft 13 kts 90°
2026-04-26 20:25 48.22036 9.90309 1791 ft 9 kts 91°
2026-04-26 20:25 48.22034 9.90374 1773 ft 2 kts 94°
2026-04-26 20:25 48.22034 9.90378 1770 ft 1 kts 93°
2026-04-26 20:26 48.22034 9.90381 1769 ft 1 kts 93°
2026-04-26 20:26 48.22033 9.90376 1767 ft 0 kts 93°
2026-04-26 20:26 48.22033 9.90379 1771 ft 1 kts 95°
2026-04-26 20:27 48.22034 9.90430 1794 ft 33 kts 95°
2026-04-26 20:27 48.22013 9.91043 1983 ft 69 kts 89°
2026-04-26 20:27 48.21985 9.91816 2130 ft 81 kts 90°
2026-04-26 20:27 48.21948 9.92731 2239 ft 95 kts 91°
2026-04-26 20:28 48.21908 9.93784 2274 ft 106 kts 90°
2026-04-26 20:28 48.21853 9.94933 2261 ft 115 kts 95°
2026-04-26 20:28 48.21700 9.96138 2228 ft 119 kts 102°
2026-04-26 20:28 48.21458 9.97312 2292 ft 115 kts 107°
2026-04-26 20:29 48.21198 9.98423 2402 ft 111 kts 108°
2026-04-26 20:29 48.20928 9.99490 2503 ft 108 kts 108°
2026-04-26 20:29 48.20643 10.00526 2623 ft 106 kts 109°
2026-04-26 20:29 48.20346 10.01519 2758 ft 104 kts 109°
2026-04-26 20:30 48.20055 10.02552 2727 ft 111 kts 103°
2026-04-26 20:30 48.19885 10.03706 2677 ft 114 kts 94°
2026-04-26 20:30 48.19844 10.04906 2636 ft 117 kts 86°
2026-04-26 20:30 48.19805 10.06140 2614 ft 121 kts 98°
2026-04-26 20:31 48.19648 10.07390 2557 ft 123 kts 100°
2026-04-26 20:31 48.19221 10.08516 2475 ft 127 kts 131°
2026-04-26 20:31 48.18455 10.09168 2451 ft 127 kts 158°
2026-04-26 20:31 48.17627 10.09533 2472 ft 125 kts 161°
2026-04-26 20:32 48.16781 10.09874 2488 ft 124 kts 161°
2026-04-26 20:32 48.15953 10.10192 2486 ft 125 kts 162°
2026-04-26 20:32 48.15103 10.10478 2482 ft 126 kts 166°
2026-04-26 20:32 48.14223 10.10676 2491 ft 125 kts 168°
2026-04-26 20:33 48.13369 10.10923 2513 ft 124 kts 164°
2026-04-26 20:33 48.12541 10.11247 2508 ft 123 kts 160°
2026-04-26 20:33 48.11807 10.11623 2497 ft 122 kts 153°
2026-04-26 20:33 48.11088 10.12268 2504 ft 121 kts 144°
2026-04-26 20:34 48.10369 10.12897 2534 ft 122 kts 152°
2026-04-26 20:34 48.09542 10.13265 2555 ft 125 kts 168°
2026-04-26 20:34 48.08675 10.13424 2564 ft 125 kts 169°
2026-04-26 20:34 48.07814 10.13609 2571 ft 125 kts 168°
2026-04-26 20:35 48.06942 10.13759 2583 ft 126 kts 173°
2026-04-26 20:35 48.06057 10.13769 2567 ft 128 kts 180°
2026-04-26 20:35 48.05168 10.13611 2545 ft 130 kts 188°
2026-04-26 20:35 48.04277 10.13393 2508 ft 130 kts 185°
2026-04-26 20:36 48.03383 10.13261 2477 ft 129 kts 181°
2026-04-26 20:36 48.02501 10.13299 2459 ft 127 kts 171°
2026-04-26 20:36 48.01648 10.13649 2447 ft 125 kts 153°
2026-04-26 20:36 48.00917 10.14314 2480 ft 123 kts 144°
2026-04-26 20:37 48.00141 10.14849 2514 ft 125 kts 163°
2026-04-26 20:37 47.99272 10.14918 2528 ft 125 kts 178°
2026-04-26 20:37 47.98412 10.15056 2572 ft 123 kts 161°
2026-04-26 20:37 47.97662 10.15633 2599 ft 121 kts 138°
2026-04-26 20:38 47.97145 10.16563 2625 ft 118 kts 117°
2026-04-26 20:38 47.96749 10.17634 2674 ft 117 kts 114°
2026-04-26 20:38 47.96731 10.18776 2670 ft 115 kts 59°
2026-04-26 20:38 47.97197 10.19791 2531 ft 120 kts 57°
2026-04-26 20:39 47.97636 10.20844 2376 ft 118 kts 59°
2026-04-26 20:39 47.97921 10.21553 2271 ft 118 kts 59°
2026-04-26 20:39 47.98484 10.22950 2160 ft 119 kts 59°
2026-04-26 20:39 47.98910 10.24014 2237 ft 115 kts 58°
2026-04-26 20:40 47.99310 10.24991 2389 ft 107 kts 60°
2026-04-26 20:40 47.99614 10.25933 2623 ft 95 kts 86°
2026-04-26 20:40 47.99123 10.26465 2774 ft 105 kts 182°
2026-04-26 20:40 47.98575 10.25713 2744 ft 113 kts 240°
2026-04-26 20:41 47.98363 10.24669 2612 ft 97 kts 287°
2026-04-26 20:41 47.98711 10.23950 2438 ft 81 kts 317°
2026-04-26 20:41 47.98981 10.23312 2250 ft 63 kts 262°
2026-04-26 20:41 47.98876 10.23015 2204 ft 29 kts 77°
2026-04-26 20:42 47.98842 10.23107 2152 ft 5 kts 353°
2026-04-26 20:42 47.98853 10.23112 2131 ft 1 kts 356°
2026-04-26 20:42 47.98855 10.23116 2128 ft 1 kts 356°
2026-04-26 20:42 47.98848 10.23114 2134 ft 5 kts 356°
2026-04-26 20:43 47.98853 10.23123 2132 ft 3 kts 356°
2026-04-26 20:43 47.98947 10.23217 2267 ft 52 kts 73°
2026-04-26 20:43 47.98720 10.23877 2485 ft 100 kts 138°
2026-04-26 20:43 47.98028 10.23795 2521 ft 119 kts 224°
2026-04-26 20:44 47.97550 10.22737 2526 ft 125 kts 245°
2026-04-26 20:44 47.97787 10.21774 2560 ft 104 kts
2026-04-26 20:44 47.98302 10.22482 2345 ft 107 kts 63°
2026-04-26 20:44 47.98675 10.23420 2327 ft 104 kts 58°
2026-04-26 20:45 47.99036 10.24363 2322 ft 104 kts 59°
2026-04-26 20:45 47.99410 10.25290 2367 ft 104 kts 59°
2026-04-26 20:45 47.99625 10.26253 2531 ft 97 kts 104°
2026-04-26 20:45 47.99043 10.26696 2677 ft 109 kts 192°
2026-04-26 20:46 47.98572 10.25806 2746 ft 115 kts 241°
2026-04-26 20:46 47.98177 10.24710 2740 ft 121 kts 242°
2026-04-26 20:46 47.97785 10.23605 2705 ft 124 kts 240°
2026-04-26 20:46 47.97357 10.22486 2682 ft 124 kts 252°
2026-04-26 20:47 47.97124 10.21243 2619 ft 126 kts 255°
2026-04-26 20:47 47.96960 10.20394 2593 ft 127 kts 253°
2026-04-26 20:47 47.96803 10.18645 2664 ft 129 kts 278°
2026-04-26 20:47 47.97020 10.17360 2705 ft 131 kts 292°
2026-04-26 20:48 47.97432 10.16147 2751 ft 131 kts 307°
2026-04-26 20:48 47.98095 10.15260 2755 ft 128 kts 338°
2026-04-26 20:48 47.98953 10.15009 2765 ft 126 kts
2026-04-26 20:48 47.99835 10.14866 2736 ft 128 kts 350°
2026-04-26 20:49 48.00671 10.14377 2716 ft 131 kts 335°
2026-04-26 20:49 48.01432 10.13625 2690 ft 131 kts 333°
2026-04-26 20:49 48.02270 10.13124 2665 ft 129 kts 351°
2026-04-26 20:49 48.03152 10.13038 2639 ft 127 kts
2026-04-26 20:50 48.04036 10.13086 2622 ft 127 kts
2026-04-26 20:50 48.04902 10.12793 2567 ft 130 kts 340°
2026-04-26 20:50 48.05698 10.12141 2526 ft 131 kts 333°
2026-04-26 20:50 48.06482 10.11461 2513 ft 131 kts 331°
2026-04-26 20:51 48.07251 10.10763 2494 ft 130 kts 331°
2026-04-26 20:51 48.07983 10.10105 2500 ft 130 kts 332°
2026-04-26 20:51 48.08583 10.09574 2507 ft 129 kts 332°
2026-04-26 20:51 48.09318 10.08942 2512 ft 128 kts 333°
2026-04-26 20:52 48.10011 10.08361 2523 ft 128 kts 334°
2026-04-26 20:52 48.10783 10.07704 2551 ft 128 kts 334°
2026-04-26 20:52 48.11423 10.07149 2552 ft 128 kts 333°
2026-04-26 20:52 48.12155 10.06503 2593 ft 128 kts 333°
2026-04-26 20:53 48.12873 10.05859 2630 ft 128 kts 333°
2026-04-26 20:53 48.13646 10.05151 2657 ft 128 kts 333°
2026-04-26 20:53 48.14405 10.04450 2677 ft 128 kts 335°
2026-04-26 20:53 48.15202 10.03881 2697 ft 126 kts 344°
2026-04-26 20:54 48.15901 10.04010 2659 ft 90 kts 70°
2026-04-26 20:54 48.15586 10.04422 2650 ft 65 kts 213°
2026-04-26 20:54 48.15389 10.03946 2545 ft 39 kts 306°
2026-04-26 20:54 48.15493 10.03714 2436 ft 27 kts 350°
2026-04-26 20:55 48.15648 10.03906 2389 ft 29 kts 121°
2026-04-26 20:55 48.15550 10.04081 2191 ft 13 kts 138°
2026-04-26 20:55 48.15512 10.04127 2113 ft 5 kts 141°
2026-04-26 20:55 48.15487 10.04152 2020 ft 2 kts 148°
2026-04-26 20:56 48.15478 10.04157 1994 ft 1 kts 148°
2026-04-26 20:56 48.15476 10.04160 1979 ft 0 kts 147°
2026-04-26 20:56 48.15475 10.04160 1975 ft 0 kts 147°
2026-04-26 20:56 48.15477 10.04160 2003 ft 2 kts 144°
2026-04-26 20:57 48.15447 10.04183 2204 ft 29 kts 135°
2026-04-26 20:57 48.15068 10.04224 2252 ft 79 kts 206°
2026-04-26 20:57 48.14602 10.03977 2223 ft 68 kts 128°
2026-04-26 20:57 48.14757 10.04058 2067 ft 43 kts 304°
2026-04-26 20:58 48.14783 10.04011 2005 ft 2 kts 64°
2026-04-26 20:58 48.14784 10.04015 1988 ft 0 kts 65°
2026-04-26 20:58 48.14722 10.04258 2128 ft 50 kts 73°
2026-04-26 20:59 48.14937 10.04158 2209 ft 37 kts 255°
2026-04-26 20:59 48.14869 10.03825 2161 ft 46 kts 188°
2026-04-26 20:59 48.14740 10.04120 2174 ft 32 kts 300°
2026-04-26 20:59 48.14779 10.03996 2010 ft 1 kts 78°
2026-04-26 21:00 48.14807 10.03972 2023 ft 37 kts 324°
2026-04-26 21:00 48.14870 10.03429 2160 ft 64 kts 323°
2026-04-26 21:00 48.15227 10.03688 2209 ft 66 kts 63°
2026-04-26 21:00 48.15364 10.04296 2143 ft 55 kts
2026-04-26 21:01 48.15542 10.04156 2090 ft 6 kts 182°
2026-04-26 21:01 48.15491 10.04143 2065 ft 8 kts 152°
2026-04-26 21:01 48.15462 10.04122 1987 ft 2 kts 153°
2026-04-26 21:01 48.15459 10.04117 1973 ft 1 kts 147°
2026-04-26 21:02 48.15458 10.04116 1972 ft 0 kts 143°
2026-04-26 21:02 48.15451 10.04119 2052 ft 13 kts 148°
2026-04-26 21:02 48.15482 10.03911 2116 ft 34 kts 354°
2026-04-26 21:02 48.15868 10.04057 2167 ft 70 kts 21°
2026-04-26 21:03 48.16349 10.04306 2149 ft 67 kts 19°
2026-04-26 21:03 48.16538 10.04408 2038 ft 12 kts 91°
2026-04-26 21:03 48.16535 10.04430 2005 ft 3 kts 46°
2026-04-26 21:03 48.16548 10.04420 1998 ft 4 kts 334°
2026-04-26 21:04 48.16570 10.04410 1979 ft 3 kts 319°
2026-04-26 21:04 48.16580 10.04398 1975 ft 1 kts 319°
2026-04-26 21:04 48.16581 10.04398 1973 ft 0 kts 319°
2026-04-26 21:04 48.16580 10.04398 1972 ft 0 kts 318°
2026-04-26 21:05 48.16572 10.04347 1972 ft 14 kts 226°
2026-04-26 21:05 48.16457 10.04065 2158 ft 46 kts 244°
2026-04-26 21:05 48.16367 10.03566 2251 ft 49 kts 324°
2026-04-26 21:05 48.16595 10.03502 2117 ft 52 kts 230°
2026-04-26 21:06 48.16373 10.03586 1985 ft 29 kts 130°
2026-04-26 21:06 48.16367 10.03781 1938 ft 19 kts 339°
2026-04-26 21:06 48.16417 10.03760 1905 ft 0 kts 301°
2026-04-26 21:06 48.16420 10.03758 1902 ft 0 kts 300°
2026-04-26 21:07 48.16416 10.03772 1924 ft 23 kts 154°
2026-04-26 21:07 48.16345 10.03606 2118 ft 33 kts 340°
2026-04-26 21:08 48.16577 10.03347 2125 ft 53 kts 232°
2026-04-26 21:08 48.16443 10.03496 2010 ft 28 kts 25°
2026-04-26 21:08 48.16474 10.03425 1997 ft 54 kts 185°
2026-04-26 21:08 48.16361 10.03789 2110 ft 78 kts 68°
2026-04-26 21:09 48.16388 10.04677 2282 ft 84 kts 98°
2026-04-26 21:09 48.15868 10.05111 2366 ft 96 kts 166°
2026-04-26 21:09 48.15209 10.04915 2387 ft 105 kts 214°
2026-04-26 21:09 48.14891 10.03957 2226 ft 100 kts 268°
2026-04-26 21:10 48.14735 10.03856 2125 ft 20 kts 64°
2026-04-26 21:10 48.14772 10.03991 2021 ft 8 kts 58°
2026-04-26 21:10 48.14785 10.04017 2036 ft 1 kts 59°
2026-04-26 21:10 48.15052 10.04071 2171 ft 67 kts 25°
2026-04-26 21:11 48.15305 10.04677 2179 ft 73 kts 56°
2026-04-26 21:11 48.15774 10.04856 2213 ft 78 kts
2026-04-26 21:11 48.16355 10.04944 2157 ft 89 kts
2026-04-26 21:11 48.16973 10.05117 2195 ft 92 kts 20°
2026-04-26 21:12 48.17519 10.05136 2167 ft 72 kts 262°
2026-04-26 21:12 48.17506 10.05203 2143 ft 42 kts 327°
2026-04-26 21:12 48.17389 10.05153 2142 ft 45 kts 80°
2026-04-26 21:12 48.17499 10.05229 2097 ft 6 kts 244°
2026-04-26 21:13 48.17509 10.05165 2059 ft 8 kts 245°
2026-04-26 21:13 48.17506 10.05113 1966 ft 2 kts 245°
2026-04-26 21:13 48.17499 10.05112 2044 ft 19 kts 246°
2026-04-26 21:13 48.17326 10.04935 2128 ft 41 kts 79°
2026-04-26 21:14 48.17477 10.05369 2114 ft 43 kts 19°
2026-04-26 21:14 48.17533 10.05245 2062 ft 6 kts 243°
2026-04-26 21:14 48.17538 10.05220 2005 ft 5 kts 238°
2026-04-26 21:14 48.17529 10.05184 2047 ft 9 kts 235°
2026-04-26 21:15 48.17504 10.05134 2014 ft 4 kts 234°
2026-04-26 21:15 48.17502 10.05118 1979 ft 4 kts 238°
2026-04-26 21:15 48.17504 10.05105 1971 ft 0 kts 245°
2026-04-26 21:15 48.17505 10.05103 1959 ft 0 kts 245°
2026-04-26 21:16 48.17456 10.04892 2648 ft 42 kts 244°
2026-04-26 21:16 48.17346 10.04413 2738 ft 50 kts 248°
2026-04-26 21:16 48.17025 10.04086 2412 ft 72 kts 180°
2026-04-26 21:16 48.16515 10.03855 2190 ft 78 kts 162°
2026-04-26 21:17 48.16180 10.04323 2159 ft 34 kts 181°
2026-04-26 21:17 48.16259 10.04111 2146 ft 8 kts 55°
2026-04-26 21:17 48.16237 10.04130 2141 ft 6 kts
2026-04-26 21:17 48.16213 10.04188 2160 ft 15 kts 340°
2026-04-26 21:18 48.16202 10.04301 2040 ft 4 kts 327°
2026-04-26 21:18 48.16205 10.04319 1985 ft 2 kts 314°
2026-04-26 21:18 48.16209 10.04279 1984 ft 8 kts 99°
2026-04-26 21:18 48.16195 10.04285 1977 ft 1 kts 63°
2026-04-26 21:19 48.16196 10.04288 1972 ft 0 kts 61°
2026-04-26 21:20 48.16192 10.04300 2034 ft 14 kts 67°
2026-04-26 21:20 48.16464 10.04388 2230 ft 56 kts 351°
2026-04-26 21:20 48.16899 10.04140 2410 ft 79 kts 332°
2026-04-26 21:20 48.17260 10.03369 2439 ft 101 kts 298°
2026-04-26 21:21 48.17590 10.02370 2381 ft 112 kts 296°
2026-04-26 21:21 48.17924 10.01274 2320 ft 118 kts 295°
2026-04-26 21:21 48.18239 10.00127 2256 ft 119 kts 293°
2026-04-26 21:21 48.18437 9.98933 2237 ft 117 kts 278°
2026-04-26 21:22 48.18539 9.97700 2262 ft 122 kts 279°
2026-04-26 21:22 48.18684 9.96419 2281 ft 127 kts 282°
2026-04-26 21:22 48.18858 9.95118 2320 ft 127 kts 282°
2026-04-26 21:23 48.19145 9.92498 2391 ft 127 kts 282°
2026-04-26 21:23 48.19313 9.91195 2421 ft 128 kts 282°
2026-04-26 21:23 48.19469 9.89884 2451 ft 127 kts 281°
2026-04-26 21:23 48.19624 9.88592 2443 ft 125 kts 289°
2026-04-26 21:24 48.20188 9.87724 2372 ft 115 kts 344°
2026-04-26 21:24 48.20954 9.87605 2290 ft 106 kts
2026-04-26 21:24 48.21575 9.88000 2310 ft 96 kts 56°
2026-04-26 21:24 48.21828 9.88818 2160 ft 76 kts 68°
2026-04-26 21:25 48.22000 9.89422 2013 ft 50 kts 70°
2026-04-26 21:25 48.22051 9.89816 1892 ft 28 kts 89°
2026-04-26 21:25 48.22042 9.90073 1857 ft 22 kts 91°
2026-04-26 21:25 48.22036 9.90278 1812 ft 16 kts 91°
2026-04-26 21:26 48.22034 9.90357 1785 ft 4 kts 94°
2026-04-26 21:26 48.22034 9.90377 1770 ft 2 kts 94°
2026-04-26 21:26 48.22033 9.90385 1769 ft 1 kts 94°
2026-04-26 21:26 48.22033 9.90383 1767 ft 0 kts 93°
2026-04-26 21:27 48.22026 9.90636 1840 ft 62 kts 87°
2026-04-26 21:28 48.22007 9.91349 2006 ft 80 kts 89°
2026-04-26 21:28 48.21924 9.92235 2095 ft 83 kts 122°
2026-04-26 21:28 48.21453 9.92197 2317 ft 79 kts 231°
2026-04-26 21:28 48.21274 9.91443 2314 ft 78 kts 259°
2026-04-26 21:29 48.21209 9.90638 2247 ft 77 kts 267°
2026-04-26 21:29 48.21261 9.89866 2191 ft 74 kts 301°
2026-04-26 21:29 48.21632 9.89504 2150 ft 59 kts
2026-04-26 21:29 48.21894 9.89825 2046 ft 46 kts 78°
2026-04-26 21:30 48.21959 9.90198 1894 ft 28 kts 92°
2026-04-26 21:30 48.21958 9.90365 1798 ft 7 kts 82°
2026-04-26 21:30 48.21958 9.90410 1780 ft 1 kts 92°
2026-04-26 21:30 48.21958 9.90414 1770 ft 0 kts 92°
2026-04-26 21:31 48.21957 9.90415 1767 ft 0 kts 93°
2026-04-26 21:31 48.21938 9.90973 1949 ft 76 kts 89°
2026-04-26 21:32 48.21912 9.91827 2094 ft 86 kts 89°
2026-04-26 21:32 48.21683 9.92602 2215 ft 85 kts 145°
2026-04-26 21:32 48.21153 9.92467 2317 ft 83 kts 229°
2026-04-26 21:32 48.21018 9.91665 2364 ft 78 kts 272°
2026-04-26 21:33 48.21023 9.90878 2353 ft 73 kts 275°
2026-04-26 21:33 48.21044 9.90147 2315 ft 69 kts 277°
2026-04-26 21:33 48.21240 9.89555 2261 ft 64 kts 338°
2026-04-26 21:33 48.21643 9.89536 2153 ft 55 kts 14°
2026-04-26 21:34 48.21932 9.89752 2025 ft 43 kts 65°
2026-04-26 21:34 48.21967 9.90110 1896 ft 26 kts 88°
2026-04-26 21:34 48.21960 9.90293 1830 ft 11 kts 90°
2026-04-26 21:34 48.21958 9.90382 1787 ft 7 kts 91°
2026-04-26 21:35 48.21957 9.90409 1770 ft 1 kts 92°
2026-04-26 21:35 48.21958 9.90411 1767 ft 0 kts 92°
2026-04-26 21:36 48.21956 9.90490 1783 ft 46 kts 93°
2026-04-26 21:37 48.21945 9.90957 1796 ft 30 kts 87°
2026-04-26 21:37 48.21842 9.91212 1785 ft 29 kts 185°
2026-04-26 21:37 48.21737 9.91193 1783 ft 2 kts 27°
2026-04-26 21:37 48.21741 9.91208 1777 ft 0 kts 25°
2026-04-26 21:38 48.21742 9.91209 1772 ft 0 kts 24°